createdAt,value
2019-05-30T00:00:05.868Z,1020.43
2019-05-30T00:01:51.661Z,1020.42
2019-05-30T00:02:51.639Z,1020.43
2019-05-30T00:03:51.617Z,1020.42
2019-05-30T00:04:51.597Z,1020.43
2019-05-30T00:05:51.583Z,1020.46
2019-05-30T00:06:51.553Z,1020.50
2019-05-30T00:07:51.542Z,1020.49
2019-05-30T00:08:51.519Z,1020.48
2019-05-30T00:09:51.489Z,1020.50
2019-05-30T00:10:51.469Z,1020.49
2019-05-30T00:11:51.450Z,1020.48
2019-05-30T00:12:51.426Z,1020.53
2019-05-30T00:13:51.409Z,1020.53
2019-05-30T00:14:51.387Z,1020.50
2019-05-30T00:15:51.363Z,1020.53
2019-05-30T00:16:51.351Z,1020.55
2019-05-30T00:17:51.319Z,1020.54
2019-05-30T00:18:51.301Z,1020.56
2019-05-30T00:19:51.279Z,1020.60
2019-05-30T00:20:51.261Z,1020.56
2019-05-30T00:21:51.233Z,1020.58
2019-05-30T00:22:51.215Z,1020.61
2019-05-30T00:23:51.185Z,1020.59
2019-05-30T00:24:51.172Z,1020.57
2019-05-30T00:25:51.143Z,1020.59
2019-05-30T00:26:51.133Z,1020.59
2019-05-30T00:27:51.107Z,1020.57
2019-05-30T00:28:51.090Z,1020.57
2019-05-30T00:29:51.063Z,1020.57
2019-05-30T00:30:51.101Z,1020.57
2019-05-30T00:31:51.020Z,1020.60
2019-05-30T00:32:51.003Z,1020.57
2019-05-30T00:33:51.005Z,1020.56
2019-05-30T00:34:50.957Z,1020.59
2019-05-30T00:35:50.941Z,1020.58
2019-05-30T00:36:50.912Z,1020.55
2019-05-30T00:37:50.893Z,1020.57
2019-05-30T00:38:50.868Z,1020.56
2019-05-30T00:39:50.848Z,1020.56
2019-05-30T00:40:50.838Z,1020.54
2019-05-30T00:41:50.804Z,1020.55
2019-05-30T00:42:50.785Z,1020.54
2019-05-30T00:43:50.766Z,1020.55
2019-05-30T00:44:50.744Z,1020.55
2019-05-30T00:45:50.721Z,1020.57
2019-05-30T00:46:50.710Z,1020.59
2019-05-30T00:47:50.678Z,1020.58
2019-05-30T00:48:51.011Z,1020.55
2019-05-30T00:49:50.667Z,1020.58
2019-05-30T00:50:50.613Z,1020.57
2019-05-30T00:51:50.616Z,1020.59
2019-05-30T00:52:50.572Z,1020.52
2019-05-30T00:53:50.548Z,1020.55
2019-05-30T00:54:50.525Z,1020.52
2019-05-30T00:55:50.504Z,1020.53
2019-05-30T00:56:50.487Z,1020.53
2019-05-30T00:57:50.460Z,1020.55
2019-05-30T00:58:50.443Z,1020.54
2019-05-30T00:59:50.423Z,1020.54
2019-05-30T01:00:50.401Z,1020.54
2019-05-30T01:01:50.378Z,1020.51
2019-05-30T01:02:50.422Z,1020.50
2019-05-30T01:03:50.330Z,1020.51
2019-05-30T01:04:50.306Z,1020.50
2019-05-30T01:05:50.306Z,1020.53
2019-05-30T01:06:50.277Z,1020.55
2019-05-30T01:07:50.246Z,1020.54
2019-05-30T01:08:50.224Z,1020.52
2019-05-30T01:09:50.202Z,1020.53
2019-05-30T01:10:50.185Z,1020.50
2019-05-30T01:11:50.158Z,1020.53
2019-05-30T01:12:50.140Z,1020.53
2019-05-30T01:13:50.118Z,1020.51
2019-05-30T01:14:50.095Z,1020.54
2019-05-30T01:15:50.071Z,1020.55
2019-05-30T01:16:50.048Z,1020.52
2019-05-30T01:17:50.031Z,1020.53
2019-05-30T01:18:50.006Z,1020.53
2019-05-30T01:19:49.983Z,1020.56
2019-05-30T01:20:49.964Z,1020.54
2019-05-30T01:21:49.943Z,1020.53
2019-05-30T01:22:49.922Z,1020.49
2019-05-30T01:23:49.904Z,1020.49
2019-05-30T01:24:49.874Z,1020.53
2019-05-30T01:25:49.857Z,1020.55
2019-05-30T01:26:49.831Z,1020.53
2019-05-30T01:27:49.815Z,1020.53
2019-05-30T01:28:49.790Z,1020.51
2019-05-30T01:29:49.766Z,1020.48
2019-05-30T01:30:59.512Z,1020.50
2019-05-30T01:31:49.722Z,1020.48
2019-05-30T01:32:49.706Z,1020.49
2019-05-30T01:33:49.680Z,1020.49
2019-05-30T01:34:49.659Z,1020.44
2019-05-30T01:35:49.640Z,1020.50
2019-05-30T01:36:49.614Z,1020.45
2019-05-30T01:37:49.593Z,1020.44
2019-05-30T01:38:49.575Z,1020.44
2019-05-30T01:39:49.567Z,1020.42
2019-05-30T01:40:49.525Z,1020.48
2019-05-30T01:41:49.508Z,1020.43
2019-05-30T01:42:49.484Z,1020.45
2019-05-30T01:43:49.465Z,1020.44
2019-05-30T01:44:49.440Z,1020.45
2019-05-30T01:45:49.417Z,1020.41
2019-05-30T01:46:49.395Z,1020.45
2019-05-30T01:47:49.374Z,1020.46
2019-05-30T01:48:49.351Z,1020.43
2019-05-30T01:49:49.327Z,1020.44
2019-05-30T01:50:49.311Z,1020.43
2019-05-30T01:51:49.288Z,1020.46
2019-05-30T01:52:49.268Z,1020.45
2019-05-30T01:53:49.247Z,1020.48
2019-05-30T01:54:49.219Z,1020.48
2019-05-30T01:55:49.200Z,1020.46
2019-05-30T01:56:49.177Z,1020.52
2019-05-30T01:57:49.157Z,1020.49
2019-05-30T01:58:49.141Z,1020.47
2019-05-30T01:59:49.113Z,1020.51
2019-05-30T02:00:49.090Z,1020.51
2019-05-30T02:01:49.073Z,1020.54
2019-05-30T02:02:49.047Z,1020.52
2019-05-30T02:03:49.024Z,1020.54
2019-05-30T02:04:49.071Z,1020.53
2019-05-30T02:05:48.982Z,1020.55
2019-05-30T02:06:48.966Z,1020.50
2019-05-30T02:07:48.939Z,1020.55
2019-05-30T02:08:48.922Z,1020.52
2019-05-30T02:09:48.899Z,1020.52
2019-05-30T02:10:48.882Z,1020.51
2019-05-30T02:11:48.853Z,1020.53
2019-05-30T02:12:48.832Z,1020.55
2019-05-30T02:13:48.805Z,1020.52
2019-05-30T02:14:48.783Z,1020.54
2019-05-30T02:15:48.770Z,1020.49
2019-05-30T02:16:48.752Z,1020.54
2019-05-30T02:17:48.724Z,1020.55
2019-05-30T02:18:48.700Z,1020.50
2019-05-30T02:19:48.679Z,1020.55
2019-05-30T02:20:48.655Z,1020.51
2019-05-30T02:21:48.631Z,1020.51
2019-05-30T02:22:48.610Z,1020.48
2019-05-30T02:23:48.593Z,1020.50
2019-05-30T02:24:48.570Z,1020.51
2019-05-30T02:25:48.546Z,1020.53
2019-05-30T02:26:48.527Z,1020.55
2019-05-30T02:27:48.505Z,1020.55
2019-05-30T02:28:48.480Z,1020.57
2019-05-30T02:29:48.458Z,1020.56
2019-05-30T02:30:48.437Z,1020.54
2019-05-30T02:31:48.413Z,1020.53
2019-05-30T02:32:48.398Z,1020.55
2019-05-30T02:33:48.391Z,1020.60
2019-05-30T02:34:48.351Z,1020.55
2019-05-30T02:35:48.334Z,1020.56
2019-05-30T02:36:48.305Z,1020.56
2019-05-30T02:37:48.285Z,1020.54
2019-05-30T02:38:48.258Z,1020.53
2019-05-30T02:39:48.252Z,1020.56
2019-05-30T02:40:48.216Z,1020.55
2019-05-30T02:41:48.200Z,1020.56
2019-05-30T02:42:48.175Z,1020.55
2019-05-30T02:43:48.158Z,1020.56
2019-05-30T02:44:48.134Z,1020.62
2019-05-30T02:45:48.107Z,1020.62
2019-05-30T02:46:48.086Z,1020.61
2019-05-30T02:47:48.066Z,1020.61
2019-05-30T02:48:58.687Z,1020.61
2019-05-30T02:49:48.020Z,1020.63
2019-05-30T02:50:48.000Z,1020.64
2019-05-30T02:51:47.974Z,1020.68
2019-05-30T02:52:47.964Z,1020.68
2019-05-30T02:53:47.946Z,1020.68
2019-05-30T02:54:47.909Z,1020.68
2019-05-30T02:55:47.890Z,1020.69
2019-05-30T02:56:47.870Z,1020.71
2019-05-30T02:57:47.840Z,1020.70
2019-05-30T02:58:47.818Z,1020.72
2019-05-30T02:59:47.798Z,1020.76
2019-05-30T03:00:47.783Z,1020.70
2019-05-30T03:02:00.829Z,1020.74
2019-05-30T03:02:47.733Z,1020.74
2019-05-30T03:03:47.710Z,1020.78
2019-05-30T03:04:47.691Z,1020.76
2019-05-30T03:05:47.667Z,1020.78
2019-05-30T03:06:47.647Z,1020.81
2019-05-30T03:07:47.630Z,1020.83
2019-05-30T03:08:47.598Z,1020.80
2019-05-30T03:09:47.579Z,1020.77
2019-05-30T03:10:47.560Z,1020.78
2019-05-30T03:11:47.539Z,1020.83
2019-05-30T03:12:47.509Z,1020.83
2019-05-30T03:13:47.493Z,1020.80
2019-05-30T03:14:47.473Z,1020.83
2019-05-30T03:15:47.451Z,1020.87
2019-05-30T03:16:47.427Z,1020.84
2019-05-30T03:17:47.404Z,1020.87
2019-05-30T03:18:47.377Z,1020.87
2019-05-30T03:19:47.368Z,1020.84
2019-05-30T03:20:47.338Z,1020.90
2019-05-30T03:21:47.318Z,1020.91
2019-05-30T03:22:47.333Z,1020.88
2019-05-30T03:23:47.273Z,1020.89
2019-05-30T03:24:47.251Z,1020.91
2019-05-30T03:25:47.223Z,1020.86
2019-05-30T03:26:47.204Z,1020.86
2019-05-30T03:27:47.186Z,1020.87
2019-05-30T03:28:47.156Z,1020.88
2019-05-30T03:29:47.138Z,1020.90
2019-05-30T03:30:47.125Z,1020.87
2019-05-30T03:31:47.113Z,1020.92
2019-05-30T03:33:05.770Z,1020.93
2019-05-30T03:33:47.051Z,1020.88
2019-05-30T03:34:47.050Z,1020.91
2019-05-30T03:35:47.161Z,1020.90
2019-05-30T03:36:46.987Z,1020.92
2019-05-30T03:37:46.963Z,1020.92
2019-05-30T03:38:46.941Z,1020.97
2019-05-30T03:39:46.917Z,1020.91
2019-05-30T03:40:46.894Z,1020.90
2019-05-30T03:41:46.875Z,1020.98
2019-05-30T03:42:46.852Z,1020.90
2019-05-30T03:43:46.828Z,1020.96
2019-05-30T03:44:46.811Z,1020.98
2019-05-30T03:45:46.785Z,1021.03
2019-05-30T03:46:46.773Z,1021.03
2019-05-30T03:47:46.738Z,1021.01
2019-05-30T03:48:46.739Z,1021.00
2019-05-30T03:49:46.709Z,1021.01
2019-05-30T03:50:46.772Z,1021.04
2019-05-30T03:51:46.661Z,1021.04
2019-05-30T03:53:49.639Z,1021.08
2019-05-30T03:56:04.551Z,1021.01
2019-05-30T03:57:01.754Z,1021.03
2019-05-30T03:58:41.634Z,1021.04
2019-05-30T03:59:41.609Z,1021.03
2019-05-30T04:00:41.593Z,1021.06
2019-05-30T04:01:41.567Z,1021.04
2019-05-30T04:02:56.410Z,1021.10
2019-05-30T04:03:41.521Z,1021.07
2019-05-30T04:04:41.503Z,1021.06
2019-05-30T04:05:41.478Z,1021.06
2019-05-30T04:06:41.464Z,1021.05
2019-05-30T04:07:41.434Z,1021.02
2019-05-30T04:08:41.418Z,1021.04
2019-05-30T04:09:44.073Z,1021.08
2019-05-30T04:10:41.371Z,1021.07
2019-05-30T04:11:41.350Z,1021.06
2019-05-30T04:13:23.847Z,1021.04
2019-05-30T04:14:23.823Z,1021.10
2019-05-30T04:15:23.805Z,1021.09
2019-05-30T04:16:23.785Z,1021.09
2019-05-30T04:17:23.764Z,1021.06
2019-05-30T04:18:23.738Z,1021.03
2019-05-30T04:19:23.720Z,1021.05
2019-05-30T04:20:23.695Z,1021.06
2019-05-30T04:21:23.677Z,1021.05
2019-05-30T04:22:23.803Z,1021.04
2019-05-30T04:23:24.035Z,1021.07
2019-05-30T04:24:23.608Z,1021.04
2019-05-30T04:25:23.591Z,1021.05
2019-05-30T04:26:23.568Z,1021.07
2019-05-30T04:27:26.175Z,1021.03
2019-05-30T04:28:23.523Z,1021.03
2019-05-30T04:29:23.508Z,1021.05
2019-05-30T04:30:23.482Z,1021.06
2019-05-30T04:31:23.462Z,1021.07
2019-05-30T04:32:23.437Z,1021.10
2019-05-30T04:33:32.677Z,1021.13
2019-05-30T04:34:23.395Z,1021.06
2019-05-30T04:35:23.376Z,1021.10
2019-05-30T04:36:23.354Z,1021.10
2019-05-30T04:37:23.341Z,1021.11
2019-05-30T04:38:23.313Z,1021.09
2019-05-30T04:39:23.286Z,1021.10
2019-05-30T04:40:23.267Z,1021.14
2019-05-30T04:41:23.248Z,1021.18
2019-05-30T04:42:23.223Z,1021.15
2019-05-30T04:43:23.202Z,1021.08
2019-05-30T04:44:23.183Z,1021.08
2019-05-30T04:45:27.685Z,1021.12
2019-05-30T04:46:23.144Z,1021.13
2019-05-30T04:47:23.121Z,1021.10
2019-05-30T04:48:23.093Z,1021.14
2019-05-30T04:49:23.071Z,1021.14
2019-05-30T04:50:23.053Z,1021.14
2019-05-30T04:51:23.034Z,1021.15
2019-05-30T04:52:24.929Z,1021.13
2019-05-30T04:53:22.995Z,1021.13
2019-05-30T04:54:22.964Z,1021.17
2019-05-30T04:55:23.266Z,1021.19
2019-05-30T04:56:22.925Z,1021.19
2019-05-30T04:57:27.017Z,1021.15
2019-05-30T04:58:24.404Z,1021.15
2019-05-30T04:59:22.858Z,1021.14
2019-05-30T05:00:22.841Z,1021.16
2019-05-30T05:01:22.811Z,1021.22
2019-05-30T05:02:23.389Z,1021.21
2019-05-30T05:03:43.464Z,1021.19
2019-05-30T05:04:22.747Z,1021.21
2019-05-30T05:05:26.740Z,1021.17
2019-05-30T05:06:22.706Z,1021.17
2019-05-30T05:07:22.682Z,1021.22
2019-05-30T05:08:22.675Z,1021.22
2019-05-30T05:09:22.644Z,1021.18
2019-05-30T05:10:22.699Z,1021.21
2019-05-30T05:11:25.109Z,1021.14
2019-05-30T05:12:22.573Z,1021.13
2019-05-30T05:13:22.732Z,1021.16
2019-05-30T05:14:22.822Z,1021.12
2019-05-30T05:15:22.850Z,1021.10
2019-05-30T05:16:34.494Z,1021.06
2019-05-30T05:17:23.137Z,1021.06
2019-05-30T05:18:23.440Z,1021.11
2019-05-30T05:19:25.672Z,1021.09
2019-05-30T05:20:23.502Z,1021.14
2019-05-30T05:21:23.100Z,1021.10
2019-05-30T05:22:23.367Z,1021.07
2019-05-30T05:23:23.409Z,1021.11
2019-05-30T05:24:23.530Z,1021.11
2019-05-30T05:25:23.513Z,1021.09
2019-05-30T05:26:22.278Z,1021.06
2019-05-30T05:27:22.253Z,1021.09
2019-05-30T05:28:22.241Z,1021.08
2019-05-30T05:29:22.214Z,1021.08
2019-05-30T05:30:22.489Z,1021.10
2019-05-30T05:31:22.492Z,1021.09
2019-05-30T05:32:22.629Z,1021.10
2019-05-30T05:33:22.660Z,1021.09
2019-05-30T05:34:22.775Z,1021.12
2019-05-30T05:35:23.027Z,1021.09
2019-05-30T05:36:23.073Z,1021.09
2019-05-30T05:37:23.238Z,1021.11
2019-05-30T05:38:22.417Z,1021.09
2019-05-30T05:39:22.318Z,1021.09
2019-05-30T05:40:22.442Z,1021.11
2019-05-30T05:41:22.295Z,1021.10
2019-05-30T05:42:22.498Z,1021.14
2019-05-30T05:43:22.466Z,1021.17
2019-05-30T05:44:22.467Z,1021.15
2019-05-30T05:45:22.805Z,1021.16
2019-05-30T05:46:22.572Z,1021.12
2019-05-30T05:47:22.794Z,1021.14
2019-05-30T05:48:22.588Z,1021.17
2019-05-30T05:49:22.610Z,1021.13
2019-05-30T05:50:22.563Z,1021.20
2019-05-30T05:51:22.780Z,1021.19
2019-05-30T05:52:22.744Z,1021.14
2019-05-30T05:53:22.949Z,1021.14
2019-05-30T05:54:22.900Z,1021.13
2019-05-30T05:55:22.845Z,1021.15
2019-05-30T05:56:22.823Z,1021.16
2019-05-30T05:57:22.846Z,1021.17
2019-05-30T05:58:23.716Z,1021.16
2019-05-30T05:59:21.584Z,1021.18
2019-05-30T06:00:21.556Z,1021.15
2019-05-30T06:01:21.595Z,1021.17
2019-05-30T06:02:21.516Z,1021.17
2019-05-30T06:03:22.242Z,1021.23
2019-05-30T06:04:21.476Z,1021.22
2019-05-30T06:05:22.265Z,1021.20
2019-05-30T06:06:21.437Z,1021.21
2019-05-30T06:07:22.415Z,1021.26
2019-05-30T06:08:21.566Z,1021.24
2019-05-30T06:09:22.503Z,1021.25
2019-05-30T06:10:21.800Z,1021.26
2019-05-30T06:11:22.620Z,1021.28
2019-05-30T06:12:21.751Z,1021.25
2019-05-30T06:13:21.289Z,1021.29
2019-05-30T06:14:21.920Z,1021.28
2019-05-30T06:15:21.256Z,1021.28
2019-05-30T06:16:21.987Z,1021.36
2019-05-30T06:18:33.803Z,1021.32
2019-05-30T06:19:45.873Z,1021.34
2019-05-30T06:20:33.757Z,1021.34
2019-05-30T06:21:33.744Z,1021.34
2019-05-30T06:22:33.716Z,1021.36
2019-05-30T06:23:33.724Z,1021.41
2019-05-30T06:24:33.675Z,1021.35
2019-05-30T06:25:33.657Z,1021.34
2019-05-30T06:26:33.650Z,1021.33
2019-05-30T06:27:33.614Z,1021.29
2019-05-30T06:28:33.596Z,1021.26
2019-05-30T06:29:33.577Z,1021.29
2019-05-30T06:30:33.565Z,1021.29
2019-05-30T06:31:33.535Z,1021.29
2019-05-30T06:32:33.519Z,1021.30
2019-05-30T06:33:33.496Z,1021.33
2019-05-30T06:34:39.167Z,1021.23
2019-05-30T06:35:33.458Z,1021.26
2019-05-30T06:36:33.441Z,1021.28
2019-05-30T06:37:33.419Z,1021.29
2019-05-30T06:38:33.407Z,1021.32
2019-05-30T06:39:33.387Z,1021.28
2019-05-30T06:40:33.365Z,1021.31
2019-05-30T06:41:33.343Z,1021.34
2019-05-30T06:42:33.320Z,1021.33
2019-05-30T06:43:33.302Z,1021.25
2019-05-30T06:44:33.281Z,1021.30
2019-05-30T06:45:33.259Z,1021.33
2019-05-30T06:50:52.317Z,1021.33
2019-05-30T06:51:52.300Z,1021.30
2019-05-30T06:52:52.284Z,1021.35
2019-05-30T06:56:36.142Z,1021.40
2019-05-30T06:58:47.896Z,1021.41
2019-05-30T07:32:34.455Z,1021.40
2019-05-30T07:53:37.367Z,1021.70
2019-05-30T07:54:37.354Z,1021.74
2019-05-30T07:58:08.354Z,1028.09
2019-05-30T07:59:08.332Z,1028.29
2019-05-30T08:00:08.317Z,1027.74
2019-05-30T08:01:08.304Z,1027.29
2019-05-30T08:02:08.288Z,1027.13
2019-05-30T08:03:08.270Z,1027.05
2019-05-30T08:04:08.260Z,1026.79
2019-05-30T08:06:35.879Z,1025.94
2019-05-30T08:08:23.413Z,1025.44
2019-05-30T08:09:23.402Z,1024.95
2019-05-30T08:10:23.389Z,1024.57
2019-05-30T08:13:06.674Z,1023.57
2019-05-30T08:14:06.661Z,1023.40
2019-05-30T08:15:06.651Z,1023.32
2019-05-30T08:16:06.644Z,1023.12
2019-05-30T08:17:06.633Z,1023.02
2019-05-30T08:18:06.626Z,1022.86
2019-05-30T08:19:06.617Z,1022.65
2019-05-30T08:20:06.602Z,1022.54
2019-05-30T08:21:06.906Z,1022.48
2019-05-30T08:22:06.593Z,1022.43
2019-05-30T08:23:09.696Z,1022.31
2019-05-30T08:24:06.576Z,1022.21
2019-05-30T08:27:47.637Z,1022.08
2019-05-30T08:28:47.660Z,1022.02
2019-05-30T08:29:47.623Z,1022.01
2019-05-30T08:30:47.620Z,1022.07
2019-05-30T08:31:47.613Z,1022.10
2019-05-30T08:32:47.607Z,1022.11
2019-05-30T08:33:47.647Z,1022.09
2019-05-30T08:39:31.571Z,1022.17
2019-05-30T08:50:23.531Z,1022.23
2019-05-30T08:51:23.524Z,1022.25
2019-05-30T08:53:23.520Z,1022.18
2019-05-30T08:54:23.519Z,1022.21
2019-05-30T08:55:23.516Z,1022.08
2019-05-30T08:56:23.516Z,1022.06
2019-05-30T08:57:23.517Z,1022.07
2019-05-30T08:58:23.515Z,1022.00
2019-05-30T08:59:23.512Z,1021.98
2019-05-30T09:00:23.511Z,1021.98
2019-05-30T09:02:23.507Z,1021.94
2019-05-30T09:03:23.512Z,1022.04
2019-05-30T09:15:15.259Z,1022.31
2019-05-30T09:16:15.260Z,1022.38
2019-05-30T09:17:15.252Z,1022.44
2019-05-30T09:18:15.249Z,1022.52
2019-05-30T09:19:15.252Z,1022.60
2019-05-30T09:20:15.258Z,1022.60
2019-05-30T09:21:15.248Z,1022.60
2019-05-30T09:22:15.247Z,1022.66
2019-05-30T09:23:15.249Z,1022.55
2019-05-30T09:24:15.247Z,1022.43
2019-05-30T09:25:15.249Z,1022.27
2019-05-30T09:26:15.248Z,1022.20
2019-05-30T09:27:15.249Z,1022.33
2019-05-30T09:28:15.252Z,1022.44
2019-05-30T09:29:15.261Z,1022.45
2019-05-30T09:30:15.456Z,1022.49
2019-05-30T09:36:25.186Z,1022.04
2019-05-30T09:37:25.182Z,1021.97
2019-05-30T09:38:25.186Z,1021.87
2019-05-30T09:39:25.189Z,1021.89
2019-05-30T09:40:25.182Z,1022.02
2019-05-30T09:41:25.184Z,1021.90
2019-05-30T09:42:25.182Z,1022.02
2019-05-30T09:43:25.184Z,1021.98
2019-05-30T09:44:25.186Z,1021.99
2019-05-30T09:45:25.186Z,1021.84
2019-05-30T09:46:25.186Z,1021.82
2019-05-30T09:47:25.186Z,1021.72
2019-05-30T09:48:25.186Z,1021.72
2019-05-30T09:49:25.188Z,1021.59
2019-05-30T09:50:25.194Z,1021.65
2019-05-30T09:51:25.188Z,1021.61
2019-05-30T09:52:25.196Z,1021.56
2019-05-30T09:53:25.188Z,1021.33
2019-05-30T09:54:25.190Z,1021.09
2019-05-30T09:55:25.191Z,1021.03
2019-05-30T09:56:25.186Z,1021.01
2019-05-30T09:57:25.192Z,1020.97
2019-05-30T09:58:25.189Z,1020.98
2019-05-30T09:59:25.191Z,1021.28
2019-05-30T10:00:25.194Z,1021.69
2019-05-30T10:01:25.190Z,1021.97
2019-05-30T10:02:25.194Z,1022.18
2019-05-30T10:03:25.195Z,1022.22
2019-05-30T10:04:25.235Z,1022.14
2019-05-30T10:05:25.207Z,1022.05
2019-05-30T10:06:29.417Z,1022.13
2019-05-30T10:07:25.206Z,1022.01
2019-05-30T10:08:25.195Z,1022.02
2019-05-30T10:09:25.199Z,1021.95
2019-05-30T10:10:25.196Z,1021.97
2019-05-30T10:11:25.528Z,1022.14
2019-05-30T10:12:25.197Z,1022.17
2019-05-30T10:13:25.200Z,1022.09
2019-05-30T10:14:25.198Z,1022.03
2019-05-30T10:15:25.203Z,1021.98
2019-05-30T10:16:25.204Z,1021.99
2019-05-30T10:17:25.203Z,1021.93
2019-05-30T10:18:25.202Z,1021.91
2019-05-30T10:19:25.203Z,1021.93
2019-05-30T10:20:25.211Z,1021.91
2019-05-30T10:21:25.203Z,1021.97
2019-05-30T10:22:25.204Z,1021.88
2019-05-30T10:23:25.204Z,1021.84
2019-05-30T10:24:25.203Z,1021.82
2019-05-30T10:25:25.255Z,1022.03
2019-05-30T10:26:25.208Z,1022.12
2019-05-30T10:27:25.208Z,1021.95
2019-05-30T10:28:25.211Z,1021.89
2019-05-30T10:29:25.269Z,1021.80
2019-05-30T10:30:25.214Z,1021.87
2019-05-30T10:31:25.213Z,1021.96
2019-05-30T10:32:25.218Z,1022.02
2019-05-30T10:33:25.213Z,1021.94
2019-05-30T10:34:25.224Z,1021.85
2019-05-30T10:35:25.250Z,1021.94
2019-05-30T10:36:25.223Z,1021.92
2019-05-30T10:37:25.222Z,1021.92
2019-05-30T10:38:25.235Z,1021.89
2019-05-30T10:39:25.229Z,1021.89
2019-05-30T10:40:25.222Z,1021.92
2019-05-30T10:41:25.222Z,1021.89
2019-05-30T10:43:12.981Z,1021.86
2019-05-30T10:44:12.975Z,1021.75
2019-05-30T10:45:12.997Z,1021.76
2019-05-30T10:46:16.226Z,1021.76
2019-05-30T10:47:13.017Z,1021.73
2019-05-30T10:48:13.033Z,1021.69
2019-05-30T10:49:12.987Z,1021.72
2019-05-30T10:50:12.985Z,1021.54
2019-05-30T10:51:12.993Z,1021.55
2019-05-30T10:52:12.989Z,1021.57
2019-05-30T10:53:12.991Z,1021.59
2019-05-30T10:54:12.995Z,1021.55
2019-05-30T10:55:12.993Z,1021.49
2019-05-30T10:56:12.995Z,1021.39
2019-05-30T10:57:12.997Z,1021.32
2019-05-30T11:01:39.640Z,1021.24
2019-05-30T11:02:39.641Z,1021.20
2019-05-30T11:03:39.642Z,1021.24
2019-05-30T11:04:39.641Z,1021.06
2019-05-30T11:05:39.647Z,1021.02
2019-05-30T11:06:39.647Z,1020.97
2019-05-30T11:07:53.231Z,1020.97
2019-05-30T11:08:39.649Z,1020.96
2019-05-30T11:09:39.646Z,1021.02
2019-05-30T11:10:39.661Z,1020.95
2019-05-30T11:11:39.673Z,1020.86
2019-05-30T11:12:39.659Z,1020.84
2019-05-30T11:13:39.658Z,1020.95
2019-05-30T11:14:39.658Z,1020.80
2019-05-30T11:15:39.666Z,1020.73
2019-05-30T11:16:39.665Z,1020.69
2019-05-30T11:17:39.669Z,1020.80
2019-05-30T11:18:39.667Z,1020.64
2019-05-30T11:19:39.673Z,1020.54
2019-05-30T11:20:39.674Z,1020.62
2019-05-30T11:21:39.674Z,1020.53
2019-05-30T11:22:39.685Z,1020.50
2019-05-30T11:23:39.691Z,1020.53
2019-05-30T11:24:39.683Z,1020.58
2019-05-30T11:25:39.689Z,1020.53
2019-05-30T11:26:39.686Z,1020.45
2019-05-30T11:27:39.688Z,1020.46
2019-05-30T11:28:39.694Z,1020.52
2019-05-30T11:29:39.695Z,1020.54
2019-05-30T11:30:39.702Z,1020.54
2019-05-30T11:31:39.699Z,1020.46
2019-05-30T11:32:39.718Z,1020.53
2019-05-30T11:33:39.723Z,1020.41
2019-05-30T11:34:39.706Z,1020.44
2019-05-30T11:35:39.707Z,1020.48
2019-05-30T11:36:39.711Z,1020.34
2019-05-30T11:37:39.710Z,1019.96
2019-05-30T11:38:39.717Z,1020.30
2019-05-30T11:39:39.719Z,1020.17
2019-05-30T11:40:39.719Z,1020.20
2019-05-30T11:41:39.717Z,1020.14
2019-05-30T11:42:39.718Z,1020.09
2019-05-30T11:43:39.721Z,1020.19
2019-05-30T11:44:39.725Z,1020.32
2019-05-30T11:45:39.725Z,1020.22
2019-05-30T11:46:39.727Z,1020.20
2019-05-30T11:47:39.731Z,1020.18
2019-05-30T11:48:39.731Z,1020.12
2019-05-30T11:49:39.737Z,1020.44
2019-05-30T11:50:39.736Z,1020.24
2019-05-30T11:51:39.735Z,1020.10
2019-05-30T11:52:39.741Z,1019.92
2019-05-30T11:53:39.738Z,1020.34
2019-05-30T11:54:39.741Z,1020.09
2019-05-30T11:55:39.744Z,1020.11
2019-05-30T11:56:39.745Z,1020.06
2019-05-30T11:57:39.743Z,1020.02
2019-05-30T11:58:39.749Z,1019.85
2019-05-30T11:59:39.753Z,1019.86
2019-05-30T12:00:39.751Z,1019.60
2019-05-30T12:01:39.752Z,1020.00
2019-05-30T12:02:39.751Z,1019.89
2019-05-30T12:03:39.763Z,1019.88
2019-05-30T12:04:39.755Z,1019.98
2019-05-30T12:05:39.766Z,1019.60
2019-05-30T12:06:39.757Z,1019.96
2019-05-30T12:07:39.760Z,1019.98
2019-05-30T12:08:39.758Z,1019.99
2019-05-30T12:09:39.757Z,1019.49
2019-05-30T12:10:39.765Z,1019.92
2019-05-30T12:11:39.765Z,1019.82
2019-05-30T12:12:39.766Z,1019.62
2019-05-30T12:13:39.772Z,1019.76
2019-05-30T12:14:39.762Z,1020.07
2019-05-30T12:15:39.767Z,1019.46
2019-05-30T12:16:39.764Z,1019.42
2019-05-30T12:17:39.762Z,1019.35
2019-05-30T12:18:39.762Z,1019.35
2019-05-30T12:19:39.762Z,1019.34
2019-05-30T12:20:39.767Z,1019.29
2019-05-30T12:21:39.766Z,1019.35
2019-05-30T12:22:39.769Z,1019.17
2019-05-30T12:23:39.771Z,1019.36
2019-05-30T12:24:39.798Z,1019.35
2019-05-30T12:25:39.764Z,1019.27
2019-05-30T12:26:39.778Z,1019.29
2019-05-30T12:27:39.764Z,1019.35
2019-05-30T12:30:23.058Z,1019.78
2019-05-30T12:31:23.062Z,1019.74
2019-05-30T12:32:23.066Z,1019.72
2019-05-30T12:33:23.068Z,1019.58
2019-05-30T12:37:29.215Z,1019.29
2019-05-30T12:38:29.193Z,1019.37
2019-05-30T12:39:29.193Z,1018.90
2019-05-30T12:40:29.194Z,1019.15
2019-05-30T12:41:29.186Z,1018.90
2019-05-30T12:42:29.187Z,1018.98
2019-05-30T12:43:29.188Z,1019.35
2019-05-30T12:44:30.196Z,1019.34
2019-05-30T12:45:29.183Z,1019.42
2019-05-30T12:51:39.116Z,1019.11
2019-05-30T12:52:39.149Z,1019.20
2019-05-30T12:53:39.116Z,1018.91
2019-05-30T12:54:39.114Z,1018.85
2019-05-30T12:55:39.106Z,1018.85
2019-05-30T12:56:39.104Z,1018.82
2019-05-30T12:57:39.104Z,1018.82
2019-05-30T12:58:39.142Z,1018.78
2019-05-30T12:59:39.102Z,1018.76
2019-05-30T13:00:39.102Z,1018.85
2019-05-30T13:01:39.098Z,1018.75
2019-05-30T13:02:39.095Z,1018.74
2019-05-30T13:03:39.098Z,1018.77
2019-05-30T13:04:39.092Z,1018.72
2019-05-30T13:05:39.085Z,1018.75
2019-05-30T13:06:39.087Z,1018.68
2019-05-30T13:07:39.082Z,1018.70
2019-05-30T13:08:39.078Z,1018.75
2019-05-30T13:12:50.003Z,1018.63
2019-05-30T13:13:49.997Z,1018.64
2019-05-30T13:14:49.997Z,1018.71
2019-05-30T13:15:49.990Z,1018.65
2019-05-30T13:16:49.984Z,1018.74
2019-05-30T13:21:59.283Z,1018.52
2019-05-30T13:22:59.125Z,1018.56
2019-05-30T13:23:59.595Z,1018.45
2019-05-30T13:24:59.693Z,1018.48
2019-05-30T13:25:59.571Z,1018.61
2019-05-30T13:26:59.667Z,1018.59
2019-05-30T13:28:02.985Z,1018.62
2019-05-30T13:29:00.299Z,1018.48
2019-05-30T13:29:59.966Z,1018.49
2019-05-30T13:31:00.230Z,1018.53
2019-05-30T13:32:00.394Z,1018.51
2019-05-30T13:32:59.063Z,1018.50
2019-05-30T13:33:59.060Z,1018.39
2019-05-30T13:34:59.246Z,1018.42
2019-05-30T13:35:59.050Z,1018.41
2019-05-30T13:46:27.499Z,1018.33
2019-05-30T13:47:24.879Z,1018.34
2019-05-30T13:48:24.866Z,1018.27
2019-05-30T13:49:27.477Z,1018.27
2019-05-30T13:50:24.851Z,1018.17
2019-05-30T13:51:24.841Z,1018.18
2019-05-30T13:52:24.835Z,1018.23
2019-05-30T13:53:24.835Z,1018.23
2019-05-30T13:54:25.149Z,1018.27
2019-05-30T13:55:28.080Z,1018.28
2019-05-30T13:56:24.810Z,1018.32
2019-05-30T13:57:24.804Z,1018.27
2019-05-30T13:58:24.796Z,1018.22
2019-05-30T13:59:24.787Z,1018.19
2019-05-30T14:00:24.785Z,1018.20
2019-05-30T14:01:24.773Z,1018.24
2019-05-30T14:02:24.771Z,1018.24
2019-05-30T14:03:24.767Z,1018.23
2019-05-30T14:04:24.749Z,1018.29
2019-05-30T14:05:24.743Z,1018.28
2019-05-30T14:06:24.734Z,1018.29
2019-05-30T14:07:24.744Z,1018.31
2019-05-30T14:08:24.721Z,1018.31
2019-05-30T14:09:24.711Z,1018.27
2019-05-30T14:10:24.704Z,1018.18
2019-05-30T14:11:24.694Z,1018.21
2019-05-30T14:12:24.685Z,1018.28
2019-05-30T14:13:24.679Z,1018.20
2019-05-30T14:14:24.674Z,1018.22
2019-05-30T14:15:24.663Z,1018.25
2019-05-30T14:16:24.658Z,1018.24
2019-05-30T14:17:24.642Z,1018.26
2019-05-30T14:18:24.637Z,1018.17
2019-05-30T14:19:25.237Z,1018.24
2019-05-30T14:20:24.624Z,1018.20
2019-05-30T14:21:24.613Z,1018.19
2019-05-30T14:22:24.618Z,1018.14
2019-05-30T14:23:24.601Z,1018.10
2019-05-30T14:24:24.586Z,1018.09